createdAt,value
2022-09-26T00:01:21.456Z,3.42
2022-09-26T00:03:53.884Z,3.13
2022-09-26T00:06:21.409Z,3.05
2022-09-26T00:08:49.615Z,3.30
2022-09-26T00:11:19.643Z,3.35
2022-09-26T00:13:46.926Z,3.15
2022-09-26T00:16:15.438Z,2.72
2022-09-26T00:18:42.093Z,3.05
2022-09-26T00:21:13.601Z,3.13
2022-09-26T00:23:41.997Z,3.22
2022-09-26T00:26:09.905Z,2.80
2022-09-26T00:28:37.161Z,2.85
2022-09-26T00:31:13.736Z,2.63
2022-09-26T00:33:40.581Z,2.90
2022-09-26T00:36:07.865Z,2.63
2022-09-26T00:38:35.331Z,2.90
2022-09-26T00:41:02.627Z,2.60
2022-09-26T00:43:38.635Z,2.50
2022-09-26T00:46:44.156Z,2.70
2022-09-26T00:49:31.477Z,2.50
2022-09-26T00:52:04.710Z,2.55
2022-09-26T00:54:32.377Z,2.58
2022-09-26T00:57:05.662Z,2.83
2022-09-26T00:59:43.684Z,2.70
2022-09-26T01:02:11.432Z,2.90
2022-09-26T01:04:41.464Z,2.92
2022-09-26T01:07:14.319Z,2.80
2022-09-26T01:09:41.069Z,2.97
2022-09-26T01:12:08.998Z,2.83
2022-09-26T01:14:36.053Z,2.75
2022-09-26T01:17:03.573Z,2.50
2022-09-26T01:19:44.821Z,2.63
2022-09-26T01:22:44.487Z,2.35
2022-09-26T01:25:23.721Z,2.50
2022-09-26T01:28:24.398Z,2.25
2022-09-26T01:31:09.737Z,2.20
2022-09-26T01:33:49.693Z,2.00
2022-09-26T01:36:32.777Z,2.25
2022-09-26T01:39:13.423Z,2.17
2022-09-26T01:41:49.007Z,2.40
2022-09-26T01:44:18.575Z,2.45
2022-09-26T01:46:54.289Z,2.15
2022-09-26T01:49:37.501Z,2.45
2022-09-26T01:52:19.946Z,2.25
2022-09-26T01:54:52.676Z,2.60
2022-09-26T01:57:30.021Z,3.00
2022-09-26T02:00:04.139Z,2.70
2022-09-26T02:02:36.139Z,2.65
2022-09-26T02:05:18.459Z,2.65
2022-09-26T02:07:54.829Z,2.53
2022-09-26T02:10:36.632Z,2.53
2022-09-26T02:13:11.383Z,2.78
2022-09-26T02:15:40.463Z,2.90
2022-09-26T02:18:17.812Z,2.42
2022-09-26T02:20:51.682Z,2.67
2022-09-26T02:23:18.270Z,2.72
2022-09-26T02:25:44.824Z,2.97
2022-09-26T02:28:11.396Z,3.20
2022-09-26T02:30:39.399Z,3.10
2022-09-26T02:33:05.935Z,3.05
2022-09-26T02:35:50.920Z,3.30
2022-09-26T02:38:17.436Z,3.08
2022-09-26T02:40:52.204Z,3.22
2022-09-26T02:43:25.785Z,3.70
2022-09-26T02:46:15.216Z,3.97
2022-09-26T02:49:09.629Z,3.60
2022-09-26T02:51:51.190Z,3.88
2022-09-26T02:54:27.098Z,4.10
2022-09-26T02:57:12.172Z,4.15
2022-09-26T02:59:59.831Z,5.15
2022-09-26T03:02:51.010Z,5.15
2022-09-26T03:05:27.731Z,5.10
2022-09-26T03:08:01.161Z,5.30
2022-09-26T03:10:30.547Z,5.07
2022-09-26T03:13:04.388Z,5.18
2022-09-26T03:15:33.214Z,5.00
2022-09-26T03:18:03.582Z,5.25
2022-09-26T03:20:30.248Z,4.88
2022-09-26T03:22:56.808Z,4.72
2022-09-26T03:25:27.406Z,4.90
2022-09-26T03:27:54.993Z,5.32
2022-09-26T03:30:22.721Z,5.38
2022-09-26T03:32:49.654Z,5.63
2022-09-26T03:35:16.234Z,5.50
2022-09-26T03:37:42.704Z,5.68
2022-09-26T03:40:11.398Z,5.28
2022-09-26T03:42:38.206Z,4.72
2022-09-26T03:45:08.630Z,4.80
2022-09-26T03:47:35.427Z,4.85
2022-09-26T03:50:02.062Z,5.03
2022-09-26T03:52:29.069Z,4.93
2022-09-26T03:54:55.670Z,4.32
2022-09-26T03:57:22.395Z,4.05
2022-09-26T03:59:49.850Z,4.15
2022-09-26T04:02:17.154Z,3.92
2022-09-26T04:04:43.736Z,4.07
2022-09-26T04:07:10.270Z,3.78
2022-09-26T04:09:36.893Z,3.60
2022-09-26T04:12:03.555Z,3.78
2022-09-26T04:14:31.251Z,3.50
2022-09-26T04:16:58.416Z,3.60
2022-09-26T04:19:26.661Z,3.47
2022-09-26T04:21:53.188Z,3.60
2022-09-26T04:24:21.392Z,3.90
2022-09-26T04:29:15.154Z,3.50
2022-09-26T04:31:42.189Z,3.60
2022-09-26T04:34:09.602Z,3.30
2022-09-26T04:36:36.120Z,3.38
2022-09-26T04:39:02.854Z,3.40
2022-09-26T04:41:29.948Z,3.22
2022-09-26T04:43:58.274Z,3.30
2022-09-26T04:49:00.642Z,3.45
2022-09-26T04:51:28.810Z,2.90
2022-09-26T04:53:56.087Z,3.03
2022-09-26T04:56:25.316Z,2.75
2022-09-26T04:58:54.711Z,2.60
2022-09-26T05:01:22.189Z,2.60
2022-09-26T05:03:49.118Z,2.45
2022-09-26T05:06:17.680Z,2.50
2022-09-26T05:08:46.783Z,2.42
2022-09-26T05:11:17.796Z,2.35
2022-09-26T05:13:45.067Z,2.30
2022-09-26T05:16:14.454Z,2.50
2022-09-26T05:18:41.602Z,2.40
2022-09-26T05:21:08.492Z,2.38
2022-09-26T05:23:54.701Z,2.45
2022-09-26T05:26:28.078Z,2.50
2022-09-26T05:28:56.949Z,2.55
2022-09-26T05:31:29.159Z,2.60
2022-09-26T05:33:59.055Z,2.67
2022-09-26T05:36:26.673Z,2.67
2022-09-26T05:38:53.896Z,2.45
2022-09-26T05:41:20.818Z,2.33
2022-09-26T05:43:50.224Z,2.22
2022-09-26T05:46:16.821Z,2.15
2022-09-26T05:48:43.397Z,2.13
2022-09-26T05:51:13.209Z,2.30
2022-09-26T05:53:41.086Z,2.10
2022-09-26T05:56:07.811Z,2.00
2022-09-26T05:58:37.117Z,2.33
2022-09-26T06:01:09.800Z,2.20
2022-09-26T06:03:37.383Z,2.13
2022-09-26T06:06:08.189Z,2.20
2022-09-26T06:08:36.434Z,2.33
2022-09-26T06:13:33.101Z,2.45
2022-09-26T06:16:08.030Z,2.45
2022-09-26T06:18:35.788Z,2.30
2022-09-26T06:21:09.265Z,2.50
2022-09-26T06:23:36.442Z,2.40
2022-09-26T06:26:05.090Z,2.50
2022-09-26T06:28:31.553Z,2.35
2022-09-26T06:30:58.042Z,2.40
2022-09-26T06:33:24.557Z,2.47
2022-09-26T06:36:05.633Z,2.47
2022-09-26T06:38:32.469Z,2.20
2022-09-26T06:40:59.164Z,2.45
2022-09-26T06:43:25.751Z,2.38
2022-09-26T06:45:53.275Z,2.47
2022-09-26T06:48:25.290Z,2.17
2022-09-26T06:50:53.102Z,2.25
2022-09-26T06:53:19.947Z,2.15
2022-09-26T06:55:46.533Z,2.30
2022-09-26T06:58:13.049Z,2.15
2022-09-26T07:00:40.459Z,2.22
2022-09-26T07:03:08.351Z,2.40
2022-09-26T07:05:36.099Z,2.35
2022-09-26T07:08:03.213Z,2.20
2022-09-26T07:10:30.491Z,2.50
2022-09-26T07:13:05.251Z,2.00
2022-09-26T07:15:33.974Z,2.50
2022-09-26T07:18:02.756Z,2.17
2022-09-26T07:20:34.049Z,2.40
2022-09-26T07:23:02.493Z,2.53
2022-09-26T07:25:31.592Z,2.15
2022-09-26T07:27:58.936Z,2.30
2022-09-26T07:30:25.959Z,2.30
2022-09-26T07:32:52.528Z,2.25
2022-09-26T07:35:19.064Z,2.38
2022-09-26T07:37:46.203Z,2.20
2022-09-26T07:40:12.828Z,2.65
2022-09-26T07:42:39.534Z,2.33
2022-09-26T07:45:24.840Z,2.38
2022-09-26T07:48:11.948Z,2.65
2022-09-26T07:50:38.842Z,2.42
2022-09-26T07:53:05.360Z,2.67
2022-09-26T07:55:32.016Z,2.22
2022-09-26T07:57:59.293Z,2.40
2022-09-26T08:00:26.382Z,2.65
2022-09-26T08:02:53.015Z,2.58
2022-09-26T08:05:24.625Z,2.42
2022-09-26T08:07:51.162Z,2.25
2022-09-26T08:10:21.282Z,2.60
2022-09-26T08:12:48.579Z,2.28
2022-09-26T08:15:15.218Z,2.40
2022-09-26T08:17:43.401Z,2.45
2022-09-26T08:20:11.139Z,2.30
2022-09-26T08:22:37.909Z,2.42
2022-09-26T08:25:06.847Z,2.53
2022-09-26T08:27:34.470Z,2.53
2022-09-26T08:30:02.183Z,2.47
2022-09-26T08:32:32.164Z,2.60
2022-09-26T08:34:58.743Z,2.40
2022-09-26T08:37:29.654Z,2.53
2022-09-26T08:39:56.179Z,2.40
2022-09-26T08:43:04.229Z,2.50
2022-09-26T08:46:04.593Z,2.35
2022-09-26T08:48:59.627Z,2.55
2022-09-26T08:51:38.044Z,2.60
2022-09-26T08:54:16.805Z,2.50
2022-09-26T08:56:54.306Z,2.45
2022-09-26T08:59:34.061Z,2.95
2022-09-26T09:02:05.124Z,2.42
2022-09-26T09:04:41.839Z,2.78
2022-09-26T09:07:21.840Z,2.83
2022-09-26T09:09:49.473Z,2.90
2022-09-26T09:12:32.001Z,2.80
2022-09-26T09:15:25.774Z,2.60
2022-09-26T09:18:13.773Z,2.60
2022-09-26T09:21:27.509Z,2.60
2022-09-26T09:23:59.764Z,2.63
2022-09-26T09:30:16.689Z,3.63
2022-09-26T09:33:06.652Z,2.92
2022-09-26T09:35:40.250Z,2.90
2022-09-26T09:38:12.659Z,2.58
2022-09-26T09:41:05.513Z,2.55
2022-09-26T09:43:50.197Z,2.85
2022-09-26T09:46:23.650Z,2.72
2022-09-26T09:48:56.227Z,2.80
2022-09-26T09:51:39.115Z,3.00
2022-09-26T09:54:24.072Z,3.03
2022-09-26T09:56:59.160Z,3.00
2022-09-26T09:59:46.977Z,2.85
2022-09-26T10:02:28.653Z,2.78
2022-09-26T10:05:33.771Z,2.60
2022-09-26T10:08:00.894Z,3.08
2022-09-26T10:10:36.953Z,2.70
2022-09-26T10:13:06.117Z,2.95
2022-09-26T10:15:36.458Z,3.17
2022-09-26T10:18:24.803Z,3.25
2022-09-26T10:20:57.316Z,3.15
2022-09-26T10:23:32.384Z,2.80
2022-09-26T10:26:08.181Z,2.75
2022-09-26T10:28:44.501Z,3.13
2022-09-26T10:31:21.811Z,3.00
2022-09-26T10:33:56.889Z,2.90
2022-09-26T10:36:32.619Z,3.05
2022-09-26T10:39:21.803Z,3.30
2022-09-26T10:41:49.213Z,3.20
2022-09-26T10:44:30.937Z,3.03
2022-09-26T10:47:00.220Z,3.30
2022-09-26T10:49:46.370Z,3.25
2022-09-26T10:52:23.584Z,3.90
2022-09-26T10:55:12.954Z,3.33
2022-09-26T10:57:48.021Z,3.90
2022-09-26T11:00:21.947Z,3.47
2022-09-26T11:02:54.279Z,3.38
2022-09-26T11:05:39.294Z,3.08
2022-09-26T11:08:08.797Z,3.28
2022-09-26T11:10:38.369Z,3.20
2022-09-26T11:13:26.272Z,3.10
2022-09-26T11:16:10.042Z,3.30
2022-09-26T11:18:59.045Z,3.17
2022-09-26T11:21:30.261Z,3.13
2022-09-26T11:24:24.824Z,3.03
2022-09-26T11:27:00.056Z,3.08
2022-09-26T11:29:41.902Z,3.13
2022-09-26T11:32:15.465Z,3.00
2022-09-26T11:34:42.596Z,2.85
2022-09-26T11:37:15.023Z,2.60
2022-09-26T11:40:07.333Z,3.00
2022-09-26T11:43:09.112Z,2.78
2022-09-26T11:45:48.051Z,2.75
2022-09-26T11:48:29.632Z,2.63
2022-09-26T11:50:59.076Z,2.83
2022-09-26T11:53:40.772Z,2.80
2022-09-26T11:56:07.508Z,2.45
2022-09-26T11:58:44.104Z,2.85
2022-09-26T12:01:21.322Z,2.70
2022-09-26T12:04:12.050Z,2.80
2022-09-26T12:06:45.274Z,2.83
2022-09-26T12:09:34.912Z,2.78
2022-09-26T12:12:39.685Z,3.20
2022-09-26T12:15:29.710Z,3.17
2022-09-26T12:18:06.145Z,4.00
2022-09-26T12:21:12.018Z,4.70
2022-09-26T12:23:58.665Z,3.35
2022-09-26T12:26:53.903Z,3.33
2022-09-26T12:29:32.685Z,3.50
2022-09-26T12:32:05.303Z,3.60
2022-09-26T12:34:43.925Z,3.38
2022-09-26T12:37:59.450Z,3.58
2022-09-26T12:41:02.346Z,3.42
2022-09-26T12:43:42.115Z,3.58
2022-09-26T12:46:30.129Z,3.50
2022-09-26T12:49:34.051Z,3.40
2022-09-26T12:52:17.682Z,3.28
2022-09-26T12:55:09.581Z,2.97
2022-09-26T12:58:17.163Z,3.35
2022-09-26T13:01:25.346Z,3.00
2022-09-26T13:04:13.396Z,2.95
2022-09-26T13:07:17.628Z,3.15
2022-09-26T13:10:09.928Z,2.72
2022-09-26T13:12:47.443Z,2.90
2022-09-26T13:15:37.416Z,2.90
2022-09-26T13:18:17.568Z,2.50
2022-09-26T13:20:58.841Z,2.63
2022-09-26T13:23:38.703Z,2.50
2022-09-26T13:26:14.217Z,2.30
2022-09-26T13:29:16.349Z,2.70
2022-09-26T13:31:48.367Z,2.33
2022-09-26T13:34:22.183Z,2.30
2022-09-26T13:36:49.958Z,2.13
2022-09-26T13:39:28.534Z,2.20
2022-09-26T13:42:07.196Z,2.17
2022-09-26T13:44:51.428Z,2.30
2022-09-26T13:47:41.249Z,2.10
2022-09-26T13:50:38.593Z,2.50
2022-09-26T13:53:38.188Z,2.25
2022-09-26T13:56:36.229Z,1.70
2022-09-26T13:59:11.791Z,1.95
2022-09-26T14:01:42.168Z,1.83
2022-09-26T14:04:19.898Z,2.00
2022-09-26T14:07:29.671Z,1.85
2022-09-26T14:10:02.183Z,1.75
2022-09-26T14:12:50.628Z,1.95
2022-09-26T14:15:22.786Z,2.25
2022-09-26T14:17:52.194Z,2.15
2022-09-26T14:20:27.518Z,2.03
2022-09-26T14:22:56.925Z,2.40
2022-09-26T14:25:45.095Z,2.83
2022-09-26T14:28:38.510Z,2.53
2022-09-26T14:31:22.324Z,2.35
2022-09-26T14:33:50.592Z,2.50
2022-09-26T14:36:33.422Z,2.58
2022-09-26T14:39:00.155Z,2.70
2022-09-26T14:41:33.478Z,2.90
2022-09-26T14:44:06.335Z,2.75
2022-09-26T14:46:35.655Z,2.83
2022-09-26T14:49:06.539Z,3.15
2022-09-26T14:51:37.085Z,3.75
2022-09-26T14:54:05.299Z,3.22
2022-09-26T14:59:16.361Z,3.30
2022-09-26T15:01:44.533Z,3.38
2022-09-26T15:06:50.723Z,9.98
2022-09-26T15:09:25.393Z,6.35
2022-09-26T15:11:58.274Z,7.95
2022-09-26T15:14:48.717Z,5.07
2022-09-26T15:17:27.593Z,4.88
2022-09-26T15:19:57.517Z,7.55
2022-09-26T15:22:27.138Z,5.82
2022-09-26T15:24:55.834Z,4.15
2022-09-26T15:27:29.626Z,6.50
2022-09-26T15:30:15.914Z,3.47
2022-09-26T15:32:42.958Z,3.70
2022-09-26T15:35:13.535Z,4.57
2022-09-26T15:37:41.420Z,3.92
2022-09-26T15:40:24.852Z,3.05
2022-09-26T15:43:09.635Z,5.43
2022-09-26T15:45:56.490Z,2.00
2022-09-26T15:48:32.533Z,2.08
2022-09-26T15:51:02.579Z,4.30
2022-09-26T15:53:44.997Z,4.82
2022-09-26T15:56:17.323Z,2.55
2022-09-26T15:58:55.189Z,2.08
2022-09-26T16:01:25.792Z,2.30
2022-09-26T16:04:20.182Z,3.13
2022-09-26T16:07:03.418Z,3.40
2022-09-26T16:09:34.003Z,3.30
2022-09-26T16:12:03.564Z,3.60
2022-09-26T16:14:40.235Z,4.35
2022-09-26T16:17:35.793Z,4.40
2022-09-26T16:20:30.723Z,4.60
2022-09-26T16:23:03.990Z,5.00
2022-09-26T16:28:15.491Z,5.05
2022-09-26T16:30:59.015Z,5.50
2022-09-26T16:33:31.677Z,5.25
2022-09-26T16:36:09.108Z,5.57
2022-09-26T16:38:36.690Z,4.45
2022-09-26T16:41:31.377Z,4.32
2022-09-26T16:44:33.631Z,4.30
2022-09-26T16:47:03.395Z,4.32
2022-09-26T16:49:48.435Z,3.83
2022-09-26T16:52:20.960Z,4.22
2022-09-26T16:54:48.762Z,4.30
2022-09-26T16:57:22.405Z,4.47
2022-09-26T16:59:50.220Z,4.00
2022-09-26T17:02:17.088Z,4.25
2022-09-26T17:04:44.474Z,4.50
2022-09-26T17:07:14.084Z,4.18
2022-09-26T17:09:42.678Z,4.50
2022-09-26T17:12:12.284Z,4.00
2022-09-26T17:14:41.106Z,3.90
2022-09-26T17:17:16.012Z,4.03
2022-09-26T17:19:47.557Z,4.00
2022-09-26T17:22:19.277Z,4.20
2022-09-26T17:24:47.939Z,4.10
2022-09-26T17:27:18.401Z,4.95
2022-09-26T17:29:48.697Z,5.60
2022-09-26T17:32:32.002Z,6.82
2022-09-26T17:35:03.817Z,8.18
2022-09-26T17:37:30.530Z,8.43
2022-09-26T17:39:57.131Z,4.97
2022-09-26T17:42:24.129Z,6.70
2022-09-26T17:44:51.103Z,4.38
2022-09-26T17:47:19.083Z,3.63
2022-09-26T17:49:57.265Z,4.57
2022-09-26T17:52:31.169Z,4.50
2022-09-26T17:55:05.247Z,4.22
2022-09-26T17:57:34.536Z,5.25
2022-09-26T18:02:44.990Z,5.72
2022-09-26T18:05:21.607Z,5.35
2022-09-26T18:07:51.876Z,4.47
2022-09-26T18:10:24.449Z,3.75
2022-09-26T18:12:57.300Z,3.60
2022-09-26T18:15:25.012Z,33.08
2022-09-26T18:17:51.993Z,14.93
2022-09-26T18:20:20.712Z,9.65
2022-09-26T18:22:49.834Z,7.82
2022-09-26T18:25:19.233Z,7.70
2022-09-26T18:27:46.785Z,4.43
2022-09-26T18:30:15.095Z,4.60
2022-09-26T18:35:16.175Z,3.70
2022-09-26T18:37:43.760Z,7.07
2022-09-26T18:40:14.997Z,4.40
2022-09-26T18:42:45.017Z,4.97
2022-09-26T18:45:14.652Z,6.22
2022-09-26T18:47:45.399Z,6.88
2022-09-26T18:50:34.506Z,5.38
2022-09-26T18:53:01.203Z,4.60
2022-09-26T18:55:46.243Z,4.70
2022-09-26T18:58:29.848Z,6.22
2022-09-26T19:01:08.450Z,4.40
2022-09-26T19:03:38.778Z,4.25
2022-09-26T19:06:13.690Z,5.60
2022-09-26T19:08:43.993Z,4.57
2022-09-26T19:11:18.866Z,4.30
2022-09-26T19:13:51.036Z,5.35
2022-09-26T19:16:18.257Z,5.18
2022-09-26T19:18:45.822Z,4.88
2022-09-26T19:21:18.945Z,4.40
2022-09-26T19:23:46.906Z,3.75
2022-09-26T19:26:33.736Z,3.90
2022-09-26T19:29:01.221Z,4.20
2022-09-26T19:31:29.000Z,3.80
2022-09-26T19:33:56.160Z,3.35
2022-09-26T19:36:22.787Z,3.35
2022-09-26T19:38:49.410Z,3.15
2022-09-26T19:41:16.022Z,3.35
2022-09-26T19:43:42.660Z,2.75
2022-09-26T19:46:14.514Z,2.60
2022-09-26T19:48:44.083Z,3.00
2022-09-26T19:51:14.500Z,3.20
2022-09-26T19:53:41.359Z,3.15
2022-09-26T19:56:08.068Z,1.70
2022-09-26T19:58:35.173Z,2.05
2022-09-26T20:01:11.339Z,1.70
2022-09-26T20:03:41.801Z,1.40
2022-09-26T20:06:21.594Z,1.50
2022-09-26T20:08:49.211Z,1.55
2022-09-26T20:11:17.245Z,1.48
2022-09-26T20:14:07.592Z,1.30
2022-09-26T20:16:38.567Z,1.30
2022-09-26T20:19:06.219Z,1.50
2022-09-26T20:21:33.912Z,1.75
2022-09-26T20:24:00.669Z,1.30
2022-09-26T20:26:29.744Z,1.55
2022-09-26T20:28:57.185Z,1.60
2022-09-26T20:31:26.291Z,1.45
2022-09-26T20:33:53.777Z,1.50
2022-09-26T20:36:27.298Z,1.20
2022-09-26T20:38:56.954Z,1.17
2022-09-26T20:41:29.491Z,1.23
2022-09-26T20:44:02.034Z,0.90
2022-09-26T20:46:40.318Z,1.00
2022-09-26T20:49:12.703Z,0.80
2022-09-26T20:51:39.813Z,1.00
2022-09-26T20:54:19.047Z,0.70
2022-09-26T20:56:47.538Z,1.00
2022-09-26T20:59:14.369Z,0.80
2022-09-26T21:01:41.030Z,0.88
2022-09-26T21:04:14.125Z,0.80
2022-09-26T21:06:41.233Z,0.90
2022-09-26T21:09:19.479Z,1.15
2022-09-26T21:11:48.850Z,1.08
2022-09-26T21:14:16.451Z,1.05
2022-09-26T21:16:46.637Z,1.00
2022-09-26T21:19:20.866Z,0.93
2022-09-26T21:21:49.699Z,0.90
2022-09-26T21:24:24.109Z,0.80
2022-09-26T21:26:51.530Z,0.93
2022-09-26T21:29:18.370Z,0.77
2022-09-26T21:31:49.641Z,0.90
2022-09-26T21:34:24.328Z,0.90
2022-09-26T21:36:53.654Z,1.10
2022-09-26T21:39:20.183Z,1.10
2022-09-26T21:41:49.560Z,0.90
2022-09-26T21:44:42.758Z,1.00
2022-09-26T21:47:10.152Z,1.08
2022-09-26T21:49:36.610Z,0.80
2022-09-26T21:52:18.648Z,1.45
2022-09-26T21:54:45.258Z,0.80
2022-09-26T21:57:35.020Z,1.30
2022-09-26T22:00:04.752Z,0.93
2022-09-26T22:02:31.269Z,1.00
2022-09-26T22:04:57.747Z,0.60
2022-09-26T22:07:24.274Z,1.15
2022-09-26T22:09:50.796Z,0.90
2022-09-26T22:12:17.339Z,0.90
2022-09-26T22:14:43.876Z,0.80
2022-09-26T22:17:10.443Z,1.00
2022-09-26T22:19:37.034Z,0.88
2022-09-26T22:22:04.059Z,1.02
2022-09-26T22:24:30.610Z,1.00
2022-09-26T22:26:57.090Z,1.20
2022-09-26T22:29:23.593Z,0.80
2022-09-26T22:31:50.094Z,1.05
2022-09-26T22:34:16.658Z,0.80
2022-09-26T22:36:43.230Z,1.05
2022-09-26T22:39:09.772Z,0.95
2022-09-26T22:41:36.247Z,0.80
2022-09-26T22:44:04.010Z,0.70
2022-09-26T22:46:33.716Z,0.95
2022-09-26T22:49:00.562Z,1.00
2022-09-26T22:51:27.596Z,0.80
2022-09-26T22:53:54.488Z,1.08
2022-09-26T22:56:21.257Z,0.60
2022-09-26T22:58:50.056Z,0.70
2022-09-26T23:01:25.188Z,0.90
2022-09-26T23:03:53.094Z,0.70
2022-09-26T23:06:21.474Z,0.75
2022-09-26T23:08:48.104Z,1.00
2022-09-26T23:11:14.834Z,0.80
2022-09-26T23:13:41.388Z,0.80
2022-09-26T23:16:11.004Z,0.80
2022-09-26T23:18:39.541Z,0.80
2022-09-26T23:21:17.592Z,0.60
2022-09-26T23:23:46.120Z,0.77
2022-09-26T23:26:23.067Z,0.65
2022-09-26T23:28:51.002Z,0.70
2022-09-26T23:31:18.008Z,0.45
2022-09-26T23:33:44.571Z,0.70
2022-09-26T23:36:11.636Z,0.60
2022-09-26T23:38:40.011Z,0.70
2022-09-26T23:41:08.617Z,0.65
2022-09-26T23:43:35.388Z,0.65
2022-09-26T23:46:02.102Z,0.65
2022-09-26T23:48:28.685Z,0.68
2022-09-26T23:50:55.346Z,0.55
2022-09-26T23:53:22.259Z,0.60
2022-09-26T23:55:48.819Z,0.50
2022-09-26T23:58:15.355Z,0.45
